Time;durP1;ratioP1;P1;durP2;ratioP2;P2;SDS_P1;SDS_P2;PMS_P1;PMS_P2;Temp;Humidity;BMP_temperature;BMP_pressure;BME280_temperature;BME280_humidity;BME280_pressure;Samples;Min_cycle;Max_cycle;Signal;HPM_P1;HPM_P2
2023/05/13 00:01:21;;;;;;;5.55;4.35;;;11.70;99.90;;;;;;5060733;28;20040;-88
2023/05/13 00:03:46;;;;;;;19.48;6.35;;;11.70;99.90;;;;;;5058817;28;20154;-87
2023/05/13 00:06:12;;;;;;;7.72;5.05;;;11.70;99.90;;;;;;5063353;28;20136;-88
2023/05/13 00:08:38;;;;;;;7.32;5.20;;;11.70;99.90;;;;;;5060280;28;20051;-88
2023/05/13 00:11:03;;;;;;;5.78;4.90;;;11.60;99.90;;;;;;5058590;28;20254;-87
2023/05/13 00:13:29;;;;;;;7.22;4.45;;;11.60;99.90;;;;;;5056313;28;20074;-88
2023/05/13 00:15:55;;;;;;;6.63;5.20;;;11.50;99.90;;;;;;5059821;28;20177;-88
2023/05/13 00:18:21;;;;;;;7.63;4.88;;;11.50;99.90;;;;;;5057501;28;20036;-89
2023/05/13 00:20:46;;;;;;;6.38;4.55;;;11.50;99.90;;;;;;5056349;28;20040;-88
2023/05/13 00:23:13;;;;;;;8.50;5.35;;;11.50;99.90;;;;;;5063595;28;20484;-88
2023/05/13 00:25:40;;;;;;;8.75;4.00;;;11.60;99.90;;;;;;5061456;28;20064;-88
2023/05/13 00:28:06;;;;;;;8.20;4.85;;;11.60;99.90;;;;;;5042987;28;20028;-88
2023/05/13 00:30:31;;;;;;;8.00;4.38;;;11.60;99.90;;;;;;5054387;28;20440;-88
2023/05/13 00:32:57;;;;;;;8.00;5.40;;;11.60;99.90;;;;;;5062468;28;20119;-89
2023/05/13 00:35:23;;;;;;;9.73;4.93;;;11.60;99.90;;;;;;5065325;28;20120;-88
2023/05/13 00:37:48;;;;;;;7.47;4.75;;;11.60;99.90;;;;;;5067748;28;20036;-88
2023/05/13 00:40:22;;;;;;;7.88;4.50;;;11.60;99.90;;;;;;5065195;28;20044;-88
2023/05/13 00:42:50;;;;;;;7.82;4.75;;;11.60;99.90;;;;;;5065863;28;20181;-89
2023/05/13 00:45:16;;;;;;;7.18;4.97;;;11.50;99.90;;;;;;5065360;28;20040;-88
2023/05/13 00:47:43;;;;;;;9.10;5.25;;;11.50;99.90;;;;;;5060553;28;20060;-88
2023/05/13 00:50:13;;;;;;;7.18;4.63;;;11.50;99.90;;;;;;5065338;28;20042;-88
2023/05/13 00:52:40;;;;;;;8.10;4.60;;;11.40;99.90;;;;;;5058884;28;20032;-89
2023/05/13 00:55:06;;;;;;;7.32;4.20;;;11.40;99.90;;;;;;5055937;28;20075;-88
2023/05/13 00:57:33;;;;;;;9.10;4.45;;;11.40;99.90;;;;;;5058001;28;20034;-89
2023/05/13 00:59:59;;;;;;;7.30;4.47;;;11.40;99.90;;;;;;5059390;28;20060;-89
2023/05/13 01:02:28;;;;;;;9.50;4.60;;;11.40;99.90;;;;;;5066070;28;20040;-89
2023/05/13 01:05:12;;;;;;;8.10;4.50;;;11.40;99.90;;;;;;5061180;28;20137;-88
2023/05/13 01:08:08;;;;;;;7.35;5.00;;;11.40;99.90;;;;;;5059276;28;20033;-88
2023/05/13 01:10:46;;;;;;;18.35;5.20;;;11.40;99.90;;;;;;5063910;28;20048;-87
2023/05/13 01:13:13;;;;;;;12.45;5.00;;;11.30;99.90;;;;;;5062453;28;20154;-88
2023/05/13 01:15:47;;;;;;;12.98;5.57;;;11.20;99.90;;;;;;5057431;28;20044;-89
2023/05/13 01:18:21;;;;;;;10.68;5.60;;;11.10;99.90;;;;;;5062316;28;20033;-88
2023/05/13 01:20:47;;;;;;;8.57;5.15;;;11.10;99.90;;;;;;5064369;28;20068;-88
2023/05/13 01:23:13;;;;;;;7.70;4.88;;;11.00;99.90;;;;;;5065727;28;20462;-88
2023/05/13 01:25:39;;;;;;;10.27;6.05;;;11.00;99.90;;;;;;5056941;28;20036;-88
2023/05/13 01:28:08;;;;;;;6.55;5.20;;;11.00;99.90;;;;;;5063040;28;20038;-89
2023/05/13 01:30:35;;;;;;;11.77;5.07;;;11.00;99.90;;;;;;5061256;28;20056;-89
2023/05/13 01:33:01;;;;;;;7.43;4.82;;;10.90;99.90;;;;;;5046716;28;20064;-88
2023/05/13 01:35:30;;;;;;;10.38;4.97;;;10.90;99.90;;;;;;5064491;28;20045;-89
2023/05/13 01:37:56;;;;;;;17.38;6.20;;;10.90;99.90;;;;;;5061406;28;20028;-90
2023/05/13 01:40:22;;;;;;;8.52;4.95;;;10.90;99.90;;;;;;5062009;28;20460;-88
2023/05/13 01:42:48;;;;;;;9.05;5.97;;;10.80;99.90;;;;;;5056610;28;20040;-88
2023/05/13 01:45:14;;;;;;;7.05;5.32;;;10.70;99.90;;;;;;5063245;28;20046;-88
2023/05/13 01:47:40;;;;;;;19.85;6.38;;;10.70;99.90;;;;;;5061512;28;20098;-89
2023/05/13 01:50:06;;;;;;;8.10;5.22;;;10.60;99.90;;;;;;5061359;28;20490;-89
2023/05/13 01:52:32;;;;;;;12.25;4.97;;;10.50;99.90;;;;;;5062952;28;20046;-89
2023/05/13 01:54:57;;;;;;;8.68;5.97;;;10.50;99.90;;;;;;5059366;28;20025;-88
2023/05/13 01:57:23;;;;;;;8.70;5.00;;;10.50;99.90;;;;;;5063637;28;20033;-88
2023/05/13 01:59:48;;;;;;;13.40;5.63;;;10.50;99.90;;;;;;5057370;28;20048;-88
2023/05/13 02:02:14;;;;;;;7.57;5.15;;;10.50;99.90;;;;;;5058240;28;20039;-88
2023/05/13 02:04:41;;;;;;;14.02;5.63;;;10.50;99.90;;;;;;5059635;28;20044;-89
2023/05/13 02:07:06;;;;;;;10.85;5.45;;;10.50;99.90;;;;;;5064326;28;20090;-89
2023/05/13 02:09:32;;;;;;;5.85;4.97;;;10.50;99.90;;;;;;5063608;28;20044;-88
2023/05/13 02:11:58;;;;;;;10.60;5.50;;;10.50;99.90;;;;;;5062769;28;20356;-88
2023/05/13 02:14:23;;;;;;;6.43;5.10;;;10.60;99.90;;;;;;5059001;28;20493;-89
2023/05/13 02:16:49;;;;;;;13.05;5.40;;;10.50;99.90;;;;;;5061986;28;20086;-89
2023/05/13 02:19:14;;;;;;;7.75;5.07;;;10.50;99.90;;;;;;5060514;28;20059;-88
2023/05/13 02:21:42;;;;;;;7.22;5.45;;;10.60;99.90;;;;;;5065906;28;20029;-88
2023/05/13 02:24:08;;;;;;;6.50;5.78;;;10.50;99.90;;;;;;5062928;28;20048;-89
2023/05/13 02:26:37;;;;;;;5.47;4.57;;;10.50;99.90;;;;;;5063232;28;20040;-89
2023/05/13 02:29:02;;;;;;;11.60;5.15;;;10.50;99.90;;;;;;5064810;28;20060;-88
2023/05/13 02:31:28;;;;;;;9.50;5.28;;;10.50;99.90;;;;;;5062388;28;20036;-89
2023/05/13 02:33:53;;;;;;;9.50;5.93;;;10.40;99.90;;;;;;5064556;28;20142;-88
2023/05/13 02:36:19;;;;;;;5.93;4.68;;;10.40;99.90;;;;;;5063977;28;20477;-88
2023/05/13 02:38:45;;;;;;;10.63;5.28;;;10.40;99.90;;;;;;5057990;28;20012;-88
2023/05/13 02:41:10;;;;;;;9.45;6.20;;;10.30;99.90;;;;;;5058781;28;20481;-88
2023/05/13 02:43:36;;;;;;;9.65;4.78;;;10.30;99.90;;;;;;5059459;28;20055;-89
2023/05/13 02:46:02;;;;;;;8.68;5.20;;;10.20;99.90;;;;;;5061008;28;20041;-88
2023/05/13 02:48:29;;;;;;;8.13;5.57;;;10.20;99.90;;;;;;5058778;28;20036;-89
2023/05/13 02:50:55;;;;;;;12.70;5.53;;;10.10;99.90;;;;;;5062958;28;20029;-89
2023/05/13 02:53:24;;;;;;;16.27;5.72;;;10.10;99.90;;;;;;5058187;28;20032;-89
2023/05/13 02:55:51;;;;;;;9.10;5.13;;;10.10;99.90;;;;;;5059229;28;20567;-89
2023/05/13 02:58:17;;;;;;;7.80;5.63;;;10.00;99.90;;;;;;5061652;28;20075;-88
2023/05/13 03:00:42;;;;;;;9.07;4.43;;;10.00;99.90;;;;;;5063528;28;20108;-88
2023/05/13 03:03:08;;;;;;;7.25;5.43;;;10.00;99.90;;;;;;5063553;28;20127;-88
2023/05/13 03:05:34;;;;;;;13.90;5.63;;;10.00;99.90;;;;;;5061781;28;20147;-87
2023/05/13 03:07:59;;;;;;;17.25;7.10;;;10.00;99.90;;;;;;5062710;28;20039;-89
2023/05/13 03:10:25;;;;;;;13.15;5.45;;;9.90;99.90;;;;;;5062848;28;20094;-88
2023/05/13 03:12:50;;;;;;;6.85;4.70;;;9.90;99.90;;;;;;5060526;28;20099;-88
2023/05/13 03:15:16;;;;;;;9.00;5.47;;;9.90;99.90;;;;;;5063628;28;20063;-88
2023/05/13 03:17:43;;;;;;;8.40;6.13;;;9.80;99.90;;;;;;5059805;28;20028;-88
2023/05/13 03:20:10;;;;;;;12.60;5.70;;;9.80;99.90;;;;;;5063126;28;20044;-88
2023/05/13 03:22:39;;;;;;;11.88;6.28;;;9.80;99.90;;;;;;5060498;28;20035;-88
2023/05/13 03:25:06;;;;;;;8.93;6.13;;;9.70;99.90;;;;;;5063741;28;20520;-89
2023/05/13 03:27:32;;;;;;;15.52;6.00;;;9.70;99.90;;;;;;5063009;28;20098;-89
2023/05/13 03:29:57;;;;;;;9.50;5.75;;;9.70;99.90;;;;;;5066504;28;20076;-88
2023/05/13 03:32:29;;;;;;;7.88;5.40;;;9.70;99.90;;;;;;5063668;28;20072;-89
2023/05/13 03:34:55;;;;;;;13.70;5.25;;;9.70;99.90;;;;;;5062985;28;20530;-88
2023/05/13 03:37:20;;;;;;;9.52;5.10;;;9.70;99.90;;;;;;5062017;28;20029;-88
2023/05/13 03:39:46;;;;;;;7.63;5.28;;;9.70;99.90;;;;;;5070407;28;20036;-87
2023/05/13 03:42:12;;;;;;;8.05;5.93;;;9.70;99.90;;;;;;5068557;28;20557;-88
2023/05/13 03:44:37;;;;;;;8.18;6.32;;;9.60;99.90;;;;;;5064913;28;20028;-88
2023/05/13 03:47:03;;;;;;;10.15;5.68;;;9.60;99.90;;;;;;5065056;28;20086;-88
2023/05/13 03:49:29;;;;;;;8.77;5.25;;;9.60;99.90;;;;;;5065086;28;20447;-88
2023/05/13 03:51:54;;;;;;;7.78;5.72;;;9.60;99.90;;;;;;5064699;28;20390;-88
2023/05/13 03:54:20;;;;;;;9.90;5.78;;;9.60;99.90;;;;;;5051801;28;20402;-88
2023/05/13 03:56:48;;;;;;;12.18;7.50;;;9.60;99.90;;;;;;5065363;28;20044;-89
2023/05/13 03:59:14;;;;;;;14.50;6.65;;;9.50;99.90;;;;;;5062953;28;20043;-88
2023/05/13 04:01:39;;;;;;;18.48;5.97;;;9.50;99.90;;;;;;5059173;28;20124;-88
2023/05/13 04:04:05;;;;;;;14.95;6.57;;;9.50;99.90;;;;;;5062737;28;20052;-87
2023/05/13 04:06:31;;;;;;;13.45;6.10;;;9.50;99.90;;;;;;5064081;28;20064;-88
2023/05/13 04:08:56;;;;;;;12.35;6.07;;;9.60;99.90;;;;;;5067204;28;20131;-88
2023/05/13 04:11:22;;;;;;;12.38;6.82;;;9.50;99.90;;;;;;5066443;28;20048;-88
2023/05/13 04:13:47;;;;;;;10.90;6.30;;;9.50;99.90;;;;;;5066566;28;20260;-88
2023/05/13 04:16:13;;;;;;;7.85;5.68;;;9.60;99.90;;;;;;5061864;28;20493;-88
2023/05/13 04:18:39;;;;;;;8.88;5.88;;;9.60;99.90;;;;;;5062912;28;20060;-88
2023/05/13 04:21:06;;;;;;;7.25;5.95;;;9.60;99.90;;;;;;5066782;28;20036;-87
2023/05/13 04:23:31;;;;;;;11.30;7.28;;;9.60;99.90;;;;;;5063502;28;20051;-88
2023/05/13 04:25:58;;;;;;;8.52;5.53;;;9.70;99.90;;;;;;5054152;28;20041;-88
2023/05/13 04:28:24;;;;;;;12.38;5.75;;;9.70;99.90;;;;;;5058766;28;20626;-88
2023/05/13 04:30:50;;;;;;;11.18;6.60;;;9.80;99.90;;;;;;5060402;28;20112;-87
2023/05/13 04:33:16;;;;;;;8.10;5.60;;;9.90;99.90;;;;;;5065362;28;20041;-89
2023/05/13 04:35:42;;;;;;;8.50;6.20;;;10.00;99.90;;;;;;5065196;28;20052;-89
2023/05/13 04:38:08;;;;;;;9.52;6.53;;;10.00;99.90;;;;;;5067268;28;20495;-87
2023/05/13 04:40:33;;;;;;;7.65;5.97;;;10.00;99.90;;;;;;5065887;28;20136;-87
2023/05/13 04:42:59;;;;;;;13.13;5.78;;;10.10;99.90;;;;;;5062529;28;20414;-88
2023/05/13 04:45:25;;;;;;;8.52;6.05;;;10.10;99.90;;;;;;5059810;28;20509;-88
2023/05/13 04:47:50;;;;;;;9.05;6.00;;;10.20;99.90;;;;;;5062436;28;20159;-87
2023/05/13 04:50:16;;;;;;;9.80;6.13;;;10.20;99.90;;;;;;5067321;28;20072;-89
2023/05/13 04:52:43;;;;;;;8.23;5.40;;;10.30;99.90;;;;;;5065210;28;20040;-88
2023/05/13 04:55:09;;;;;;;10.60;6.53;;;10.30;99.90;;;;;;5073837;28;20117;-87
2023/05/13 04:57:35;;;;;;;13.15;7.13;;;10.40;99.90;;;;;;5076031;28;20044;-87
2023/05/13 05:00:02;;;;;;;11.52;7.15;;;10.50;99.90;;;;;;5062847;28;20436;-87
2023/05/13 05:02:31;;;;;;;9.30;6.03;;;10.70;99.90;;;;;;5063121;28;20048;-88
2023/05/13 05:05:00;;;;;;;13.95;7.38;;;10.80;99.90;;;;;;5063236;28;20393;-88
2023/05/13 05:07:25;;;;;;;11.45;6.82;;;10.90;99.90;;;;;;5064276;28;20032;-88
2023/05/13 05:09:51;;;;;;;8.35;5.85;;;11.00;99.90;;;;;;5066411;28;20047;-87
2023/05/13 05:12:17;;;;;;;16.40;8.05;;;11.10;99.90;;;;;;5065351;28;20032;-86
2023/05/13 05:14:43;;;;;;;9.50;5.88;;;11.20;99.90;;;;;;5065435;28;20041;-87
2023/05/13 05:17:09;;;;;;;10.45;6.43;;;11.40;99.90;;;;;;5063665;28;20375;-87
2023/05/13 05:19:34;;;;;;;16.23;6.72;;;11.50;99.90;;;;;;5057477;28;20099;-86
2023/05/13 05:22:00;;;;;;;15.13;5.97;;;11.70;99.90;;;;;;5063898;28;20036;-87
2023/05/13 05:24:26;;;;;;;14.82;5.90;;;11.70;99.90;;;;;;5063568;28;20041;-87
2023/05/13 05:26:51;;;;;;;11.98;5.72;;;11.80;99.90;;;;;;5062434;28;20050;-86
2023/05/13 05:29:17;;;;;;;10.80;4.90;;;11.80;99.90;;;;;;5065384;28;20049;-86
2023/05/13 05:31:43;;;;;;;20.35;6.10;;;11.80;99.90;;;;;;5062818;28;20139;-86
2023/05/13 05:34:08;;;;;;;7.72;5.55;;;11.90;99.90;;;;;;5067530;28;20032;-86
2023/05/13 05:36:35;;;;;;;17.65;6.55;;;12.10;99.90;;;;;;5057039;28;20032;-86
2023/05/13 05:39:04;;;;;;;9.45;6.40;;;12.20;99.90;;;;;;5064703;28;20102;-86
2023/05/13 05:41:31;;;;;;;9.27;6.50;;;12.20;99.90;;;;;;5062705;28;20381;-85
2023/05/13 05:43:56;;;;;;;18.88;6.22;;;12.30;99.90;;;;;;5062414;28;20040;-85
2023/05/13 05:46:22;;;;;;;10.15;5.88;;;12.30;99.90;;;;;;5040614;28;20041;-87
2023/05/13 05:48:48;;;;;;;9.55;5.70;;;12.40;99.90;;;;;;5065032;28;20044;-85
2023/05/13 05:51:13;;;;;;;18.98;6.15;;;12.50;99.90;;;;;;5058095;28;20029;-87
2023/05/13 05:53:45;;;;;;;9.88;6.53;;;12.40;99.90;;;;;;5064300;28;20127;-88
2023/05/13 05:56:11;;;;;;;12.07;6.20;;;12.40;99.90;;;;;;5066880;28;20041;-87
2023/05/13 05:58:36;;;;;;;14.25;6.63;;;12.40;99.90;;;;;;5065718;28;20509;-85
2023/05/13 06:01:02;;;;;;;12.88;6.60;;;12.40;99.90;;;;;;5070394;28;20031;-86
2023/05/13 06:03:28;;;;;;;12.18;6.88;;;12.50;99.90;;;;;;5065329;28;20469;-86
2023/05/13 06:05:53;;;;;;;13.95;7.68;;;12.40;99.90;;;;;;5067172;28;20432;-87
2023/05/13 06:08:19;;;;;;;19.85;6.82;;;12.50;99.90;;;;;;5068734;28;20115;-87
2023/05/13 06:10:45;;;;;;;13.73;7.80;;;12.50;99.90;;;;;;5060124;28;20044;-86
2023/05/13 06:13:13;;;;;;;10.95;7.28;;;12.50;99.90;;;;;;5056244;28;20251;-87
2023/05/13 06:15:39;;;;;;;12.07;7.28;;;12.50;99.90;;;;;;5063999;28;20040;-87
2023/05/13 06:18:05;;;;;;;13.63;7.40;;;12.60;99.90;;;;;;5065619;28;20043;-86
2023/05/13 06:20:31;;;;;;;21.25;6.88;;;12.50;99.90;;;;;;5061563;28;20020;-85
2023/05/13 06:22:57;;;;;;;16.20;7.43;;;12.60;99.90;;;;;;5059387;28;20071;-86
2023/05/13 06:25:22;;;;;;;15.10;7.22;;;12.60;99.90;;;;;;5063484;28;20814;-86
2023/05/13 06:27:48;;;;;;;19.77;7.78;;;12.70;99.90;;;;;;5059812;28;20477;-86
2023/05/13 06:30:14;;;;;;;23.95;8.30;;;12.70;99.90;;;;;;5044083;28;20041;-84
2023/05/13 06:32:39;;;;;;;11.38;7.05;;;12.80;99.90;;;;;;5063866;28;20148;-86
2023/05/13 06:35:06;;;;;;;17.67;7.70;;;12.80;99.90;;;;;;5064636;28;20036;-86
2023/05/13 06:37:31;;;;;;;16.60;7.63;;;12.90;99.90;;;;;;5061345;28;20036;-88
2023/05/13 06:39:58;;;;;;;14.88;7.30;;;12.90;99.90;;;;;;5064214;28;20039;-86
2023/05/13 06:42:23;;;;;;;11.13;7.20;;;12.90;99.90;;;;;;5063748;28;20037;-86
2023/05/13 06:44:49;;;;;;;14.23;7.15;;;13.00;99.90;;;;;;5066813;28;20046;-85
2023/05/13 06:47:18;;;;;;;15.13;7.82;;;13.00;99.90;;;;;;5063672;28;20123;-88
2023/05/13 06:49:43;;;;;;;16.85;8.20;;;13.10;99.90;;;;;;5064101;28;20048;-87
2023/05/13 06:52:09;;;;;;;11.48;6.78;;;13.10;99.90;;;;;;5060945;28;20048;-86
2023/05/13 06:54:36;;;;;;;15.45;7.00;;;13.00;99.90;;;;;;5062156;28;20094;-87
2023/05/13 06:57:04;;;;;;;16.08;7.28;;;13.00;99.90;;;;;;5060991;28;20039;-86
2023/05/13 06:59:30;;;;;;;8.25;5.90;;;13.00;99.90;;;;;;5063939;28;20043;-86
2023/05/13 07:01:56;;;;;;;8.48;5.72;;;13.10;99.90;;;;;;5059086;28;20064;-88
2023/05/13 07:04:25;;;;;;;14.27;6.80;;;13.10;99.90;;;;;;5064499;28;20060;-88
2023/05/13 07:06:50;;;;;;;18.88;7.38;;;13.00;99.90;;;;;;5067828;28;20530;-86
2023/05/13 07:09:16;;;;;;;14.05;7.15;;;13.00;99.90;;;;;;5062670;28;20191;-87
2023/05/13 07:11:42;;;;;;;11.88;7.00;;;13.00;99.90;;;;;;5060575;28;20040;-86
2023/05/13 07:14:08;;;;;;;16.88;9.32;;;13.10;99.90;;;;;;5065608;28;20029;-87
2023/05/13 07:16:34;;;;;;;18.75;9.40;;;13.10;99.90;;;;;;5061549;28;20035;-87
2023/05/13 07:18:59;;;;;;;14.98;7.90;;;13.30;99.90;;;;;;5063639;28;20040;-86
2023/05/13 07:21:25;;;;;;;11.98;7.60;;;13.30;99.90;;;;;;5061411;28;20465;-86
2023/05/13 07:23:51;;;;;;;18.23;6.20;;;13.40;99.90;;;;;;5061852;28;20068;-86
2023/05/13 07:26:16;;;;;;;9.98;7.15;;;13.40;99.90;;;;;;5061100;28;20122;-87
2023/05/13 07:28:42;;;;;;;14.35;8.90;;;13.40;99.90;;;;;;5061691;28;20048;-84
2023/05/13 07:31:08;;;;;;;12.52;8.82;;;13.60;99.90;;;;;;5061932;28;20033;-86
2023/05/13 07:33:34;;;;;;;15.07;7.55;;;13.60;99.90;;;;;;5041842;28;20028;-85
2023/05/13 07:36:00;;;;;;;13.35;8.27;;;13.70;99.90;;;;;;5062782;28;20226;-85
2023/05/13 07:38:26;;;;;;;23.65;8.88;;;13.80;99.90;;;;;;5058283;28;20115;-89
2023/05/13 07:40:52;;;;;;;11.52;8.75;;;13.80;99.90;;;;;;5062323;28;20047;-85
2023/05/13 07:43:22;;;;;;;12.40;8.05;;;13.80;99.90;;;;;;5061358;28;20033;-88
2023/05/13 07:45:49;;;;;;;12.07;8.43;;;13.80;99.90;;;;;;5062083;28;20055;-86
2023/05/13 07:48:16;;;;;;;12.05;8.20;;;13.80;99.90;;;;;;5057449;28;20057;-86
2023/05/13 07:50:45;;;;;;;19.42;7.85;;;13.80;99.90;;;;;;5060743;28;20037;-86
2023/05/13 07:53:13;;;;;;;18.52;8.23;;;13.70;99.90;;;;;;5058667;28;20040;-88
2023/05/13 07:55:39;;;;;;;9.98;6.90;;;13.70;99.90;;;;;;5058252;28;20036;-87
2023/05/13 07:58:05;;;;;;;9.60;7.30;;;13.70;99.90;;;;;;5059885;28;20707;-85
2023/05/13 08:00:31;;;;;;;16.27;7.60;;;13.70;99.90;;;;;;5061806;28;20033;-86
2023/05/13 08:02:56;;;;;;;16.40;8.07;;;13.80;99.90;;;;;;5060156;28;20044;-88
2023/05/13 08:05:22;;;;;;;16.23;8.77;;;13.80;99.90;;;;;;5057793;28;20028;-87
2023/05/13 08:07:47;;;;;;;12.77;7.43;;;13.90;99.90;;;;;;5057383;28;20037;-87
2023/05/13 08:10:13;;;;;;;17.08;8.70;;;14.00;99.90;;;;;;5028605;28;20063;-87
2023/05/13 08:12:39;;;;;;;13.77;9.20;;;14.00;99.90;;;;;;4982599;28;20053;-86
2023/05/13 08:15:06;;;;;;;16.50;9.65;;;14.10;99.90;;;;;;4964984;28;20039;-87
2023/05/13 08:17:35;;;;;;;13.43;8.77;;;14.10;99.90;;;;;;4949176;28;20033;-88
2023/05/13 08:20:01;;;;;;;16.83;9.55;;;14.20;99.90;;;;;;5031753;28;20086;-88
2023/05/13 08:22:27;;;;;;;11.82;8.93;;;14.20;99.90;;;;;;4997320;28;20027;-88
2023/05/13 08:24:53;;;;;;;12.75;8.00;;;14.20;99.90;;;;;;4960901;28;20050;-86
2023/05/13 08:27:18;;;;;;;11.88;8.32;;;14.30;99.90;;;;;;4956142;28;20035;-87
2023/05/13 08:29:44;;;;;;;17.85;8.98;;;14.30;99.90;;;;;;4962463;28;20043;-86
2023/05/13 08:32:11;;;;;;;14.27;9.75;;;14.30;99.90;;;;;;4949689;28;20035;-87
2023/05/13 08:34:36;;;;;;;22.08;10.13;;;14.30;99.90;;;;;;5005886;28;20397;-86
2023/05/13 08:37:02;;;;;;;15.52;9.93;;;14.30;99.90;;;;;;4956835;28;20040;-86
2023/05/13 08:39:28;;;;;;;20.40;11.13;;;14.30;99.90;;;;;;4948997;28;20027;-86
2023/05/13 08:41:56;;;;;;;19.50;10.48;;;14.30;99.90;;;;;;4942560;28;20058;-88
2023/05/13 08:44:27;;;;;;;17.80;10.75;;;14.40;99.90;;;;;;5011463;28;20034;-87
2023/05/13 08:47:31;;;;;;;14.25;9.05;;;14.50;99.90;;;;;;4959042;28;20075;-91
2023/05/13 08:49:58;;;;;;;20.65;11.80;;;14.50;99.90;;;;;;4967657;28;20067;-86
2023/05/13 08:52:23;;;;;;;20.08;11.77;;;14.70;99.90;;;;;;4991405;28;20105;-88
2023/05/13 08:54:49;;;;;;;24.13;15.35;;;14.70;99.90;;;;;;5014415;28;20047;-86
2023/05/13 08:57:15;;;;;;;14.65;10.88;;;14.90;99.90;;;;;;4966614;28;20040;-86
2023/05/13 08:59:40;;;;;;;20.48;10.35;;;15.00;99.90;;;;;;4968845;28;20034;-86
2023/05/13 09:02:09;;;;;;;17.75;10.07;;;15.10;99.90;;;;;;4968112;28;20033;-88
2023/05/13 09:04:36;;;;;;;16.38;11.57;;;15.20;99.90;;;;;;4978301;28;20056;-85
2023/05/13 09:07:05;;;;;;;13.20;9.32;;;15.30;99.90;;;;;;4959432;28;20031;-86
2023/05/13 09:09:34;;;;;;;23.20;11.13;;;15.40;99.90;;;;;;4960720;28;20043;-86
2023/05/13 09:11:59;;;;;;;29.10;12.00;;;15.40;99.90;;;;;;5030890;28;20053;-86
2023/05/13 09:14:32;;;;;;;17.80;11.25;;;15.50;99.90;;;;;;4995097;28;20166;-85
2023/05/13 09:16:59;;;;;;;13.15;9.38;;;15.60;99.90;;;;;;5004075;28;20034;-86
2023/05/13 09:19:25;;;;;;;26.92;10.70;;;15.60;99.90;;;;;;4996104;28;20041;-87
2023/05/13 09:21:52;;;;;;;13.50;9.43;;;15.70;99.90;;;;;;5000361;28;20035;-86
2023/05/13 09:24:21;;;;;;;27.58;13.30;;;15.80;99.90;;;;;;5022193;28;20374;-87
2023/05/13 09:26:49;;;;;;;19.20;11.27;;;15.90;99.90;;;;;;5024396;28;20025;-86
2023/05/13 09:29:17;;;;;;;14.48;9.82;;;15.90;99.90;;;;;;4979821;28;20061;-89
2023/05/13 09:31:45;;;;;;;17.40;10.07;;;15.90;99.90;;;;;;4980964;28;20035;-86
2023/05/13 09:34:11;;;;;;;25.98;9.93;;;15.90;99.90;;;;;;4995939;28;20039;-87
2023/05/13 09:36:40;;;;;;;14.40;9.32;;;16.00;99.90;;;;;;5016035;28;20041;-87
2023/05/13 09:39:06;;;;;;;15.32;10.07;;;16.00;99.90;;;;;;4987689;28;20069;-87
2023/05/13 09:41:32;;;;;;;25.95;11.02;;;16.10;99.90;;;;;;5047187;28;20060;-89
2023/05/13 09:44:01;;;;;;;13.70;9.25;;;16.20;99.90;;;;;;4986901;28;20035;-90
2023/05/13 09:46:27;;;;;;;16.40;9.07;;;16.20;99.90;;;;;;4967901;28;20031;-93
2023/05/13 09:48:55;;;;;;;21.33;9.35;;;16.30;99.90;;;;;;4968720;28;20104;-88
2023/05/13 09:51:31;;;;;;;13.50;7.95;;;16.40;99.90;;;;;;4974520;28;20093;-86
2023/05/13 09:54:05;;;;;;;12.50;7.05;;;16.40;99.90;;;;;;5025306;28;20508;-89
2023/05/13 09:56:33;;;;;;;17.95;7.45;;;16.50;99.90;;;;;;5004890;28;20034;-86
2023/05/13 09:59:00;;;;;;;11.82;5.95;;;16.50;99.90;;;;;;5021276;28;20034;-92
2023/05/13 10:01:27;;;;;;;15.23;5.93;;;16.50;99.90;;;;;;5040895;28;20556;-91
2023/05/13 10:03:58;;;;;;;11.52;6.50;;;16.60;99.90;;;;;;4967605;28;20064;-90
2023/05/13 10:06:29;;;;;;;21.42;7.47;;;16.70;99.90;;;;;;5022582;28;20130;-87
2023/05/13 10:08:58;;;;;;;11.45;6.55;;;16.70;99.90;;;;;;5001349;28;20051;-88
2023/05/13 10:11:26;;;;;;;9.63;5.63;;;16.80;99.90;;;;;;5034358;28;20079;-84
2023/05/13 10:14:11;;;;;;;13.30;5.97;;;16.80;99.90;;;;;;5063310;28;20079;-88
2023/05/13 10:16:37;;;;;;;11.07;5.60;;;16.80;99.90;;;;;;5042769;28;20032;-86
2023/05/13 10:19:04;;;;;;;10.75;6.03;;;16.90;99.90;;;;;;5025033;28;20552;-86
2023/05/13 10:21:30;;;;;;;16.85;6.57;;;17.00;99.90;;;;;;5044565;28;20482;-87
2023/05/13 10:23:56;;;;;;;21.52;6.38;;;17.10;99.90;;;;;;5045634;28;20045;-85
2023/05/13 10:26:22;;;;;;;9.35;6.05;;;17.20;99.90;;;;;;5042224;28;20120;-87
2023/05/13 10:28:49;;;;;;;12.10;5.95;;;17.30;99.90;;;;;;5042451;28;20060;-86
2023/05/13 10:31:16;;;;;;;10.93;5.57;;;17.40;99.90;;;;;;5041568;28;20087;-87
2023/05/13 10:33:42;;;;;;;8.80;6.38;;;17.40;99.90;;;;;;5041209;28;20563;-87
2023/05/13 10:36:14;;;;;;;12.90;6.00;;;17.40;99.90;;;;;;5041318;28;20041;-86
2023/05/13 10:39:03;;;;;;;12.57;6.68;;;17.40;99.90;;;;;;5043413;28;20036;-87
2023/05/13 10:42:03;;;;;;;13.50;6.65;;;17.50;99.90;;;;;;5042048;28;20033;-92
2023/05/13 10:44:30;;;;;;;14.65;6.88;;;17.50;99.90;;;;;;5039200;28;20037;-89
2023/05/13 10:46:56;;;;;;;12.20;6.47;;;17.50;99.90;;;;;;5039102;28;20037;-86
2023/05/13 10:49:23;;;;;;;9.90;5.72;;;17.50;99.90;;;;;;5038432;28;20155;-86
2023/05/13 10:51:50;;;;;;;12.93;5.43;;;17.40;99.90;;;;;;5039721;28;20375;-84
2023/05/13 10:54:20;;;;;;;12.85;5.78;;;17.50;99.90;;;;;;5043576;28;20389;-93
2023/05/13 10:56:56;;;;;;;6.95;5.15;;;17.60;99.90;;;;;;5038923;28;20571;-89
2023/05/13 10:59:22;;;;;;;10.07;5.80;;;17.60;99.90;;;;;;5041461;28;20075;-91
2023/05/13 11:01:48;;;;;;;10.23;5.05;;;17.50;99.90;;;;;;5041040;28;20037;-88
2023/05/13 11:04:16;;;;;;;8.90;4.53;;;17.50;99.90;;;;;;5041427;28;20040;-86
2023/05/13 11:06:45;;;;;;;13.45;4.50;;;17.50;99.90;;;;;;5043390;28;20041;-86
2023/05/13 11:09:18;;;;;;;6.68;4.28;;;17.60;99.90;;;;;;5041981;28;20283;-86
2023/05/13 11:11:48;;;;;;;5.80;4.07;;;17.70;99.90;;;;;;5036148;28;20052;-86
2023/05/13 11:14:19;;;;;;;6.43;4.00;;;17.70;99.90;;;;;;5027259;28;20487;-86
2023/05/13 11:16:53;;;;;;;7.03;4.32;;;17.70;99.90;;;;;;5041569;28;20044;-86
2023/05/13 11:19:30;;;;;;;7.60;3.63;;;17.80;99.90;;;;;;5040274;28;20067;-87
2023/05/13 11:22:07;;;;;;;9.90;3.85;;;17.90;99.90;;;;;;5039205;28;20045;-86
2023/05/13 11:24:33;;;;;;;7.72;3.70;;;17.90;99.90;;;;;;5036553;28;20464;-86
2023/05/13 11:27:11;;;;;;;6.57;4.47;;;18.00;99.90;;;;;;5041781;28;20078;-89
2023/05/13 11:29:40;;;;;;;11.77;3.65;;;18.00;99.90;;;;;;5022998;28;20047;-87
2023/05/13 11:32:05;;;;;;;9.02;3.78;;;18.10;99.90;;;;;;5043150;28;20032;-85
2023/05/13 11:34:32;;;;;;;11.52;4.10;;;18.10;99.90;;;;;;5038824;28;20033;-87
2023/05/13 11:37:08;;;;;;;8.20;3.85;;;18.20;99.90;;;;;;5043939;28;20102;-86
2023/05/13 11:39:35;;;;;;;12.63;4.00;;;18.30;99.90;;;;;;5039924;28;20037;-85
2023/05/13 11:42:05;;;;;;;5.68;3.42;;;18.30;99.90;;;;;;5046944;28;20116;-86
2023/05/13 11:44:34;;;;;;;7.10;3.45;;;18.30;97.50;;;;;;5036557;28;20037;-94
2023/05/13 11:47:04;;;;;;;7.32;3.47;;;18.20;99.80;;;;;;5041235;28;20296;-86
2023/05/13 11:49:36;;;;;;;140.63;13.40;;;18.20;99.90;;;;;;5041353;28;20057;-87
2023/05/13 11:52:15;;;;;;;9.52;4.13;;;18.20;98.50;;;;;;5042713;28;20375;-90
2023/05/13 11:54:50;;;;;;;14.38;4.00;;;18.30;99.90;;;;;;5042530;28;20652;-85
2023/05/13 11:57:22;;;;;;;13.13;4.28;;;18.30;99.20;;;;;;5043376;28;20086;-88
2023/05/13 11:59:55;;;;;;;7.70;3.60;;;18.30;88.80;;;;;;5044308;28;20040;-87
2023/05/13 12:02:22;;;;;;;11.02;3.83;;;18.40;95.70;;;;;;5036876;28;20033;-85
2023/05/13 12:04:50;;;;;;;4.70;3.22;;;18.30;91.60;;;;;;5043966;28;20120;-86
2023/05/13 12:07:26;;;;;;;11.45;3.45;;;18.30;95.10;;;;;;5038550;28;20037;-86
2023/05/13 12:09:56;;;;;;;7.63;3.63;;;18.30;91.90;;;;;;5044213;28;20536;-93
2023/05/13 12:13:03;;;;;;;11.35;3.28;;;18.20;94.90;;;;;;5041868;28;20047;-92
2023/05/13 12:15:29;;;;;;;11.68;4.07;;;18.10;96.90;;;;;;4997735;28;20112;-85
2023/05/13 12:17:58;;;;;;;6.63;3.75;;;18.20;95.50;;;;;;4985399;28;20037;-86
2023/05/13 12:20:24;;;;;;;9.40;4.15;;;18.20;94.30;;;;;;4997704;28;20506;-89
2023/05/13 12:22:51;;;;;;;8.63;3.45;;;18.30;93.50;;;;;;5027354;28;20375;-87
2023/05/13 12:25:50;;;;;;;9.68;3.75;;;18.40;85.00;;;;;;5040750;28;20101;-84
2023/05/13 12:28:18;;;;;;;4.40;3.17;;;18.50;83.90;;;;;;5043069;28;20040;-85
2023/05/13 12:31:06;;;;;;;13.70;3.67;;;18.50;84.10;;;;;;5044114;28;20433;-89
2023/05/13 12:33:40;;;;;;;6.30;3.67;;;18.50;83.50;;;;;;5046017;28;20079;-85
2023/05/13 12:36:30;;;;;;;11.80;3.33;;;18.50;85.80;;;;;;5041815;28;20101;-85
2023/05/13 12:39:05;;;;;;;10.65;3.58;;;18.50;91.50;;;;;;5042925;28;20409;-87
2023/05/13 12:41:33;;;;;;;6.70;2.97;;;18.40;80.40;;;;;;5044124;28;20147;-88
2023/05/13 12:44:12;;;;;;;6.70;3.13;;;18.40;87.40;;;;;;5042500;28;20033;-86